Main page
METAR-TAF:

METAR-TAF

Airports :

Dalaman Airport

Dalaman, Turkey

latitude: 36-42N, longitude: 028-47E, elevation: 7 m

Current weather observation

The report was made 39 minutes ago, at 16:20 UTC
Wind 10 kt from the Southwest
Temperature 27°C
Humidity 74%
Pressure 1006 hPa
Visibility 10 km or more
no clouds below 1500 m and no cumulonimbus

METAR: LTBS 151620Z 22010KT CAVOK 27/22 Q1006 NOSIG

Time: 19:59 (16:59 UTC)

Forecast

The report was made 6 hours and 19 minutes ago, at 10:40 UTC
Forecast valid from 15 at 12 UTC to 16 at 12 UTC
Wind 12 kt from the South/Southwest
Visibility 10 km or more
Few clouds at a height of 3000 ft
Becoming
from 15 at 15 UTC to 15 at 17 UTC
Wind 2 kt from variable directions
Visibility 10 km or more
no clouds below 1500 m and no cumulonimbus
Becoming
from 16 at 06 UTC to 16 at 08 UTC
Wind 12 kt from the South/Southwest
Few clouds at a height of 3000 ft

TAF: LTBS 151040Z 1512/1612 21012KT 9999 FEW030 BECMG 1515/1517 VRB02KT CAVOK BECMG 1606/1608 21012KT FEW030

Weather observations and forecasts of more than 4000 airports (METAR and TAF reports).

The available stations are represented by yellow and red dots on the map.

Hover mouse over dot to see the name of the station.

Then click to see weather observations and forecasts.

To change the map : click on the green buttons with a black cross to zoom in, on the green button with a dash to zoom out, or on the green arrows for adjacent maps.


METAR-TAF: